sensor_id;sensor_type;location;lat;lon;timestamp;P1;durP1;ratioP1;P2;durP2;ratioP2
44838;SDS011;30576;42.098;24.876;2023-07-24T00:00:11;3.25;;;1.92;;
44838;SDS011;30576;42.098;24.876;2023-07-24T00:02:37;3.42;;;1.20;;
44838;SDS011;30576;42.098;24.876;2023-07-24T00:05:03;3.28;;;2.00;;
44838;SDS011;30576;42.098;24.876;2023-07-24T00:07:28;5.03;;;2.70;;
44838;SDS011;30576;42.098;24.876;2023-07-24T00:09:54;4.88;;;2.05;;
44838;SDS011;30576;42.098;24.876;2023-07-24T00:12:22;4.82;;;1.80;;
44838;SDS011;30576;42.098;24.876;2023-07-24T00:14:49;3.45;;;1.67;;
44838;SDS011;30576;42.098;24.876;2023-07-24T00:17:17;3.85;;;1.98;;
44838;SDS011;30576;42.098;24.876;2023-07-24T00:19:43;1.73;;;1.42;;
44838;SDS011;30576;42.098;24.876;2023-07-24T00:22:08;4.88;;;2.10;;
44838;SDS011;30576;42.098;24.876;2023-07-24T00:24:35;3.03;;;2.35;;
44838;SDS011;30576;42.098;24.876;2023-07-24T00:27:02;2.53;;;1.42;;
44838;SDS011;30576;42.098;24.876;2023-07-24T00:29:28;4.10;;;2.13;;
44838;SDS011;30576;42.098;24.876;2023-07-24T00:31:54;2.35;;;1.73;;
44838;SDS011;30576;42.098;24.876;2023-07-24T00:34:19;3.55;;;1.40;;
44838;SDS011;30576;42.098;24.876;2023-07-24T00:36:45;3.78;;;1.23;;
44838;SDS011;30576;42.098;24.876;2023-07-24T00:39:11;2.55;;;1.70;;
44838;SDS011;30576;42.098;24.876;2023-07-24T00:41:39;4.40;;;2.15;;
44838;SDS011;30576;42.098;24.876;2023-07-24T00:44:04;2.40;;;1.63;;
44838;SDS011;30576;42.098;24.876;2023-07-24T00:46:31;2.00;;;1.40;;
44838;SDS011;30576;42.098;24.876;2023-07-24T00:48:58;3.95;;;2.53;;
44838;SDS011;30576;42.098;24.876;2023-07-24T00:51:28;5.10;;;2.05;;
44838;SDS011;30576;42.098;24.876;2023-07-24T00:53:54;3.40;;;2.47;;
44838;SDS011;30576;42.098;24.876;2023-07-24T00:56:21;1.85;;;1.67;;
44838;SDS011;30576;42.098;24.876;2023-07-24T00:58:49;3.60;;;2.05;;
44838;SDS011;30576;42.098;24.876;2023-07-24T01:01:16;2.88;;;2.53;;
44838;SDS011;30576;42.098;24.876;2023-07-24T01:03:42;5.47;;;2.97;;
44838;SDS011;30576;42.098;24.876;2023-07-24T01:06:10;2.10;;;1.90;;
44838;SDS011;30576;42.098;24.876;2023-07-24T01:08:39;4.00;;;1.90;;
44838;SDS011;30576;42.098;24.876;2023-07-24T01:11:08;3.83;;;2.60;;
44838;SDS011;30576;42.098;24.876;2023-07-24T01:13:38;6.57;;;2.30;;
44838;SDS011;30576;42.098;24.876;2023-07-24T01:16:14;4.57;;;2.63;;
44838;SDS011;30576;42.098;24.876;2023-07-24T01:18:45;1.85;;;1.75;;
44838;SDS011;30576;42.098;24.876;2023-07-24T01:21:12;3.72;;;2.80;;
44838;SDS011;30576;42.098;24.876;2023-07-24T01:23:49;3.45;;;2.25;;
44838;SDS011;30576;42.098;24.876;2023-07-24T01:26:28;4.13;;;2.63;;
44838;SDS011;30576;42.098;24.876;2023-07-24T01:28:53;3.60;;;2.22;;
44838;SDS011;30576;42.098;24.876;2023-07-24T01:31:19;4.57;;;3.20;;
44838;SDS011;30576;42.098;24.876;2023-07-24T01:33:44;6.10;;;2.67;;
44838;SDS011;30576;42.098;24.876;2023-07-24T01:36:10;2.75;;;2.05;;
44838;SDS011;30576;42.098;24.876;2023-07-24T01:38:42;4.28;;;2.10;;
44838;SDS011;30576;42.098;24.876;2023-07-24T01:41:08;3.70;;;2.67;;
44838;SDS011;30576;42.098;24.876;2023-07-24T01:43:34;5.10;;;2.55;;
44838;SDS011;30576;42.098;24.876;2023-07-24T01:45:59;5.55;;;2.42;;
44838;SDS011;30576;42.098;24.876;2023-07-24T01:48:26;2.50;;;1.70;;
44838;SDS011;30576;42.098;24.876;2023-07-24T01:50:51;8.35;;;2.00;;
44838;SDS011;30576;42.098;24.876;2023-07-24T01:53:17;5.47;;;4.05;;
44838;SDS011;30576;42.098;24.876;2023-07-24T01:55:42;5.82;;;3.13;;
44838;SDS011;30576;42.098;24.876;2023-07-24T01:58:08;3.45;;;2.10;;
44838;SDS011;30576;42.098;24.876;2023-07-24T02:00:35;6.28;;;3.67;;
44838;SDS011;30576;42.098;24.876;2023-07-24T02:03:00;4.85;;;2.72;;
44838;SDS011;30576;42.098;24.876;2023-07-24T02:05:26;5.38;;;2.83;;
44838;SDS011;30576;42.098;24.876;2023-07-24T02:07:51;5.75;;;3.63;;
44838;SDS011;30576;42.098;24.876;2023-07-24T02:10:20;3.85;;;2.90;;
44838;SDS011;30576;42.098;24.876;2023-07-24T02:12:45;4.90;;;2.95;;
44838;SDS011;30576;42.098;24.876;2023-07-24T02:15:11;4.85;;;3.35;;
44838;SDS011;30576;42.098;24.876;2023-07-24T02:17:39;5.63;;;2.40;;
44838;SDS011;30576;42.098;24.876;2023-07-24T02:20:04;6.97;;;3.60;;
44838;SDS011;30576;42.098;24.876;2023-07-24T02:22:30;5.45;;;3.17;;
44838;SDS011;30576;42.098;24.876;2023-07-24T02:24:56;4.75;;;3.47;;
44838;SDS011;30576;42.098;24.876;2023-07-24T02:27:29;9.68;;;3.13;;
44838;SDS011;30576;42.098;24.876;2023-07-24T02:29:56;13.10;;;5.23;;
44838;SDS011;30576;42.098;24.876;2023-07-24T02:32:22;5.75;;;4.57;;
44838;SDS011;30576;42.098;24.876;2023-07-24T02:34:51;4.75;;;3.22;;
44838;SDS011;30576;42.098;24.876;2023-07-24T02:37:18;6.45;;;3.35;;
44838;SDS011;30576;42.098;24.876;2023-07-24T02:39:44;4.90;;;3.10;;
44838;SDS011;30576;42.098;24.876;2023-07-24T02:42:09;6.97;;;4.57;;
44838;SDS011;30576;42.098;24.876;2023-07-24T02:44:35;6.45;;;3.50;;
44838;SDS011;30576;42.098;24.876;2023-07-24T02:47:01;5.97;;;3.25;;
44838;SDS011;30576;42.098;24.876;2023-07-24T02:49:27;3.55;;;2.80;;
44838;SDS011;30576;42.098;24.876;2023-07-24T02:51:52;7.00;;;3.83;;
44838;SDS011;30576;42.098;24.876;2023-07-24T02:54:18;6.60;;;4.28;;
44838;SDS011;30576;42.098;24.876;2023-07-24T02:56:43;14.00;;;3.80;;
44838;SDS011;30576;42.098;24.876;2023-07-24T02:59:11;6.43;;;4.15;;
44838;SDS011;30576;42.098;24.876;2023-07-24T03:01:36;5.22;;;3.30;;
44838;SDS011;30576;42.098;24.876;2023-07-24T03:04:04;8.20;;;3.83;;
44838;SDS011;30576;42.098;24.876;2023-07-24T03:06:31;12.52;;;6.15;;
44838;SDS011;30576;42.098;24.876;2023-07-24T03:08:56;8.75;;;4.35;;
44838;SDS011;30576;42.098;24.876;2023-07-24T03:11:22;8.50;;;5.93;;
44838;SDS011;30576;42.098;24.876;2023-07-24T03:13:47;14.57;;;5.40;;
44838;SDS011;30576;42.098;24.876;2023-07-24T03:16:13;9.77;;;5.05;;
44838;SDS011;30576;42.098;24.876;2023-07-24T03:18:38;11.43;;;5.90;;
44838;SDS011;30576;42.098;24.876;2023-07-24T03:21:04;6.47;;;5.45;;
44838;SDS011;30576;42.098;24.876;2023-07-24T03:23:29;7.80;;;5.35;;
44838;SDS011;30576;42.098;24.876;2023-07-24T03:25:55;10.30;;;6.35;;
44838;SDS011;30576;42.098;24.876;2023-07-24T03:28:20;8.80;;;4.45;;
44838;SDS011;30576;42.098;24.876;2023-07-24T03:30:46;13.13;;;6.20;;
44838;SDS011;30576;42.098;24.876;2023-07-24T03:33:11;8.68;;;5.53;;
44838;SDS011;30576;42.098;24.876;2023-07-24T03:35:38;4.55;;;3.92;;
44838;SDS011;30576;42.098;24.876;2023-07-24T03:38:04;11.65;;;5.32;;
44838;SDS011;30576;42.098;24.876;2023-07-24T03:40:30;13.30;;;7.03;;
44838;SDS011;30576;42.098;24.876;2023-07-24T03:42:57;6.88;;;4.38;;
44838;SDS011;30576;42.098;24.876;2023-07-24T03:45:25;4.13;;;3.22;;
44838;SDS011;30576;42.098;24.876;2023-07-24T03:47:51;7.65;;;5.07;;
44838;SDS011;30576;42.098;24.876;2023-07-24T03:50:16;9.43;;;5.82;;
44838;SDS011;30576;42.098;24.876;2023-07-24T03:52:42;7.28;;;4.15;;
44838;SDS011;30576;42.098;24.876;2023-07-24T03:55:07;7.53;;;5.20;;
44838;SDS011;30576;42.098;24.876;2023-07-24T03:57:34;8.93;;;6.35;;
44838;SDS011;30576;42.098;24.876;2023-07-24T03:59:59;8.68;;;4.68;;
44838;SDS011;30576;42.098;24.876;2023-07-24T04:02:25;7.30;;;4.57;;
44838;SDS011;30576;42.098;24.876;2023-07-24T04:04:50;10.18;;;4.85;;
44838;SDS011;30576;42.098;24.876;2023-07-24T04:07:16;14.35;;;7.43;;
44838;SDS011;30576;42.098;24.876;2023-07-24T04:09:41;12.30;;;5.88;;
44838;SDS011;30576;42.098;24.876;2023-07-24T04:12:07;11.95;;;6.78;;
44838;SDS011;30576;42.098;24.876;2023-07-24T04:14:32;13.35;;;6.80;;
44838;SDS011;30576;42.098;24.876;2023-07-24T04:16:58;8.02;;;5.70;;
44838;SDS011;30576;42.098;24.876;2023-07-24T04:19:23;15.38;;;6.90;;
44838;SDS011;30576;42.098;24.876;2023-07-24T04:21:49;9.80;;;5.80;;
44838;SDS011;30576;42.098;24.876;2023-07-24T04:24:14;15.15;;;5.13;;
44838;SDS011;30576;42.098;24.876;2023-07-24T04:26:40;10.63;;;4.82;;
44838;SDS011;30576;42.098;24.876;2023-07-24T04:29:05;8.10;;;5.03;;
44838;SDS011;30576;42.098;24.876;2023-07-24T04:31:32;6.53;;;4.72;;
44838;SDS011;30576;42.098;24.876;2023-07-24T04:33:57;15.73;;;6.28;;
44838;SDS011;30576;42.098;24.876;2023-07-24T04:36:22;7.78;;;5.60;;
44838;SDS011;30576;42.098;24.876;2023-07-24T04:38:48;13.45;;;7.00;;
44838;SDS011;30576;42.098;24.876;2023-07-24T04:41:13;19.48;;;8.85;;
44838;SDS011;30576;42.098;24.876;2023-07-24T04:43:39;10.27;;;5.15;;
44838;SDS011;30576;42.098;24.876;2023-07-24T04:46:04;8.05;;;5.57;;
44838;SDS011;30576;42.098;24.876;2023-07-24T04:48:30;7.45;;;4.25;;
44838;SDS011;30576;42.098;24.876;2023-07-24T04:50:55;3.92;;;2.80;;
44838;SDS011;30576;42.098;24.876;2023-07-24T04:53:21;9.25;;;5.05;;
44838;SDS011;30576;42.098;24.876;2023-07-24T04:55:47;8.73;;;3.88;;
44838;SDS011;30576;42.098;24.876;2023-07-24T04:58:13;2.53;;;2.15;;
44838;SDS011;30576;42.098;24.876;2023-07-24T05:00:39;4.57;;;3.17;;
44838;SDS011;30576;42.098;24.876;2023-07-24T05:03:04;4.07;;;2.20;;
44838;SDS011;30576;42.098;24.876;2023-07-24T05:05:31;4.57;;;3.22;;
44838;SDS011;30576;42.098;24.876;2023-07-24T05:07:57;5.60;;;3.55;;
44838;SDS011;30576;42.098;24.876;2023-07-24T05:10:22;7.57;;;4.07;;
44838;SDS011;30576;42.098;24.876;2023-07-24T05:12:47;6.35;;;4.35;;
44838;SDS011;30576;42.098;24.876;2023-07-24T05:15:13;7.18;;;2.42;;
44838;SDS011;30576;42.098;24.876;2023-07-24T05:17:41;5.70;;;3.45;;
44838;SDS011;30576;42.098;24.876;2023-07-24T05:20:07;11.48;;;4.32;;
44838;SDS011;30576;42.098;24.876;2023-07-24T05:22:33;6.85;;;4.75;;
44838;SDS011;30576;42.098;24.876;2023-07-24T05:24:59;8.20;;;4.65;;
44838;SDS011;30576;42.098;24.876;2023-07-24T05:27:24;6.43;;;3.72;;
44838;SDS011;30576;42.098;24.876;2023-07-24T05:29:50;6.00;;;3.17;;
44838;SDS011;30576;42.098;24.876;2023-07-24T05:32:15;8.77;;;3.83;;
44838;SDS011;30576;42.098;24.876;2023-07-24T05:34:41;19.02;;;6.40;;
44838;SDS011;30576;42.098;24.876;2023-07-24T05:37:06;7.05;;;4.63;;
44838;SDS011;30576;42.098;24.876;2023-07-24T05:39:32;13.32;;;5.25;;
44838;SDS011;30576;42.098;24.876;2023-07-24T05:41:57;5.70;;;4.07;;
44838;SDS011;30576;42.098;24.876;2023-07-24T05:44:22;9.20;;;4.35;;
44838;SDS011;30576;42.098;24.876;2023-07-24T05:46:48;6.85;;;3.38;;
44838;SDS011;30576;42.098;24.876;2023-07-24T05:49:13;6.32;;;3.05;;
44838;SDS011;30576;42.098;24.876;2023-07-24T05:51:39;9.13;;;4.22;;
44838;SDS011;30576;42.098;24.876;2023-07-24T05:54:04;9.00;;;3.58;;
44838;SDS011;30576;42.098;24.876;2023-07-24T05:56:30;4.32;;;3.00;;
44838;SDS011;30576;42.098;24.876;2023-07-24T05:58:55;12.10;;;3.85;;
44838;SDS011;30576;42.098;24.876;2023-07-24T06:01:21;7.25;;;4.68;;
44838;SDS011;30576;42.098;24.876;2023-07-24T06:03:47;8.43;;;4.57;;
44838;SDS011;30576;42.098;24.876;2023-07-24T06:06:14;4.50;;;3.85;;
44838;SDS011;30576;42.098;24.876;2023-07-24T06:08:39;5.20;;;3.67;;
44838;SDS011;30576;42.098;24.876;2023-07-24T06:11:05;7.70;;;4.40;;
44838;SDS011;30576;42.098;24.876;2023-07-24T06:13:30;4.53;;;3.40;;
44838;SDS011;30576;42.098;24.876;2023-07-24T06:15:55;8.02;;;3.30;;
44838;SDS011;30576;42.098;24.876;2023-07-24T06:18:21;6.63;;;3.40;;
44838;SDS011;30576;42.098;24.876;2023-07-24T06:20:47;6.35;;;3.38;;
44838;SDS011;30576;42.098;24.876;2023-07-24T06:23:15;7.00;;;3.17;;
44838;SDS011;30576;42.098;24.876;2023-07-24T06:25:40;6.07;;;3.40;;
44838;SDS011;30576;42.098;24.876;2023-07-24T06:28:05;4.90;;;3.17;;
44838;SDS011;30576;42.098;24.876;2023-07-24T06:30:31;5.03;;;3.28;;
44838;SDS011;30576;42.098;24.876;2023-07-24T06:32:56;7.13;;;3.60;;
44838;SDS011;30576;42.098;24.876;2023-07-24T06:35:22;5.40;;;2.95;;
44838;SDS011;30576;42.098;24.876;2023-07-24T06:37:47;6.82;;;3.28;;
44838;SDS011;30576;42.098;24.876;2023-07-24T06:40:13;8.50;;;4.15;;
44838;SDS011;30576;42.098;24.876;2023-07-24T06:42:40;5.85;;;3.58;;
44838;SDS011;30576;42.098;24.876;2023-07-24T06:45:05;8.32;;;3.40;;
44838;SDS011;30576;42.098;24.876;2023-07-24T06:47:35;5.28;;;2.60;;
44838;SDS011;30576;42.098;24.876;2023-07-24T06:50:01;5.18;;;3.25;;
44838;SDS011;30576;42.098;24.876;2023-07-24T06:52:27;3.97;;;2.33;;
44838;SDS011;30576;42.098;24.876;2023-07-24T06:54:53;4.85;;;2.78;;
44838;SDS011;30576;42.098;24.876;2023-07-24T06:57:18;5.43;;;2.85;;
44838;SDS011;30576;42.098;24.876;2023-07-24T06:59:44;12.98;;;4.65;;
44838;SDS011;30576;42.098;24.876;2023-07-24T07:02:09;5.15;;;3.15;;
44838;SDS011;30576;42.098;24.876;2023-07-24T07:04:35;7.35;;;4.68;;
44838;SDS011;30576;42.098;24.876;2023-07-24T07:07:00;9.05;;;3.40;;
44838;SDS011;30576;42.098;24.876;2023-07-24T07:09:25;7.30;;;4.00;;
44838;SDS011;30576;42.098;24.876;2023-07-24T07:11:51;8.20;;;3.88;;
44838;SDS011;30576;42.098;24.876;2023-07-24T07:14:16;7.20;;;3.45;;
44838;SDS011;30576;42.098;24.876;2023-07-24T07:16:42;5.75;;;3.25;;
44838;SDS011;30576;42.098;24.876;2023-07-24T07:19:07;6.38;;;3.70;;
44838;SDS011;30576;42.098;24.876;2023-07-24T07:21:34;5.63;;;4.05;;
44838;SDS011;30576;42.098;24.876;2023-07-24T07:24:00;6.75;;;4.13;;
44838;SDS011;30576;42.098;24.876;2023-07-24T07:26:25;15.38;;;4.78;;
44838;SDS011;30576;42.098;24.876;2023-07-24T07:28:51;8.77;;;4.35;;
44838;SDS011;30576;42.098;24.876;2023-07-24T07:31:17;12.10;;;4.20;;
44838;SDS011;30576;42.098;24.876;2023-07-24T07:33:42;8.35;;;4.95;;
44838;SDS011;30576;42.098;24.876;2023-07-24T07:36:07;5.70;;;3.28;;
44838;SDS011;30576;42.098;24.876;2023-07-24T07:38:33;8.35;;;5.05;;
44838;SDS011;30576;42.098;24.876;2023-07-24T07:40:58;9.20;;;5.15;;
44838;SDS011;30576;42.098;24.876;2023-07-24T07:43:28;5.82;;;3.80;;
44838;SDS011;30576;42.098;24.876;2023-07-24T07:45:54;7.53;;;3.67;;
44838;SDS011;30576;42.098;24.876;2023-07-24T07:48:21;14.82;;;5.38;;
44838;SDS011;30576;42.098;24.876;2023-07-24T07:50:50;7.18;;;3.83;;
44838;SDS011;30576;42.098;24.876;2023-07-24T07:53:18;7.53;;;4.10;;
44838;SDS011;30576;42.098;24.876;2023-07-24T07:55:43;6.30;;;3.90;;
44838;SDS011;30576;42.098;24.876;2023-07-24T07:58:09;10.85;;;3.92;;
44838;SDS011;30576;42.098;24.876;2023-07-24T08:00:34;6.15;;;3.95;;
44838;SDS011;30576;42.098;24.876;2023-07-24T08:03:00;8.43;;;4.47;;
44838;SDS011;30576;42.098;24.876;2023-07-24T08:05:25;10.25;;;4.10;;
44838;SDS011;30576;42.098;24.876;2023-07-24T08:07:51;5.45;;;3.53;;
44838;SDS011;30576;42.098;24.876;2023-07-24T08:10:17;9.35;;;4.50;;
44838;SDS011;30576;42.098;24.876;2023-07-24T08:12:42;5.80;;;3.20;;
44838;SDS011;30576;42.098;24.876;2023-07-24T08:15:08;4.00;;;2.45;;
44838;SDS011;30576;42.098;24.876;2023-07-24T08:17:34;8.35;;;3.22;;
44838;SDS011;30576;42.098;24.876;2023-07-24T08:20:00;4.82;;;3.55;;
44838;SDS011;30576;42.098;24.876;2023-07-24T08:22:25;6.57;;;3.35;;
44838;SDS011;30576;42.098;24.876;2023-07-24T08:24:50;6.15;;;2.95;;
44838;SDS011;30576;42.098;24.876;2023-07-24T08:27:16;4.45;;;3.03;;
44838;SDS011;30576;42.098;24.876;2023-07-24T08:29:42;6.22;;;2.92;;
44838;SDS011;30576;42.098;24.876;2023-07-24T08:32:07;6.28;;;3.50;;
44838;SDS011;30576;42.098;24.876;2023-07-24T08:50:38;5.95;;;3.65;;
44838;SDS011;30576;42.098;24.876;2023-07-24T08:53:03;6.53;;;3.45;;
44838;SDS011;30576;42.098;24.876;2023-07-24T08:55:29;6.10;;;3.85;;
44838;SDS011;30576;42.098;24.876;2023-07-24T08:57:55;6.68;;;4.13;;
44838;SDS011;30576;42.098;24.876;2023-07-24T09:00:21;7.38;;;3.55;;
44838;SDS011;30576;42.098;24.876;2023-07-24T09:02:46;6.88;;;3.50;;
44838;SDS011;30576;42.098;24.876;2023-07-24T09:05:12;5.78;;;3.15;;
44838;SDS011;30576;42.098;24.876;2023-07-24T09:07:39;7.38;;;3.78;;
44838;SDS011;30576;42.098;24.876;2023-07-24T09:10:05;8.05;;;3.88;;
44838;SDS011;30576;42.098;24.876;2023-07-24T09:12:31;7.38;;;2.97;;
44838;SDS011;30576;42.098;24.876;2023-07-24T09:15:05;4.25;;;2.60;;
44838;SDS011;30576;42.098;24.876;2023-07-24T09:17:32;6.40;;;3.15;;
44838;SDS011;30576;42.098;24.876;2023-07-24T09:19:58;6.18;;;3.58;;
44838;SDS011;30576;42.098;24.876;2023-07-24T09:22:25;6.10;;;3.78;;
44838;SDS011;30576;42.098;24.876;2023-07-24T09:24:52;5.18;;;2.75;;
44838;SDS011;30576;42.098;24.876;2023-07-24T09:27:20;4.40;;;3.15;;
44838;SDS011;30576;42.098;24.876;2023-07-24T09:29:46;4.63;;;2.97;;
44838;SDS011;30576;42.098;24.876;2023-07-24T09:32:21;4.30;;;2.67;;
44838;SDS011;30576;42.098;24.876;2023-07-24T09:34:49;5.32;;;3.00;;
44838;SDS011;30576;42.098;24.876;2023-07-24T09:37:24;4.05;;;2.78;;
44838;SDS011;30576;42.098;24.876;2023-07-24T09:39:51;6.40;;;3.70;;
44838;SDS011;30576;42.098;24.876;2023-07-24T09:42:16;7.63;;;3.97;;
44838;SDS011;30576;42.098;24.876;2023-07-24T09:44:43;10.00;;;3.70;;
44838;SDS011;30576;42.098;24.876;2023-07-24T09:47:08;6.00;;;3.58;;
44838;SDS011;30576;42.098;24.876;2023-07-24T09:49:34;6.32;;;2.50;;
44838;SDS011;30576;42.098;24.876;2023-07-24T09:52:00;8.63;;;3.47;;
44838;SDS011;30576;42.098;24.876;2023-07-24T09:54:35;4.93;;;2.78;;
44838;SDS011;30576;42.098;24.876;2023-07-24T09:57:10;8.10;;;3.70;;
44838;SDS011;30576;42.098;24.876;2023-07-24T09:59:38;7.53;;;4.03;;
44838;SDS011;30576;42.098;24.876;2023-07-24T10:02:08;5.18;;;2.45;;
44838;SDS011;30576;42.098;24.876;2023-07-24T10:04:37;4.45;;;2.75;;
44838;SDS011;30576;42.098;24.876;2023-07-24T10:07:05;12.57;;;5.18;;
44838;SDS011;30576;42.098;24.876;2023-07-24T10:09:32;8.40;;;4.03;;
44838;SDS011;30576;42.098;24.876;2023-07-24T10:12:01;4.80;;;2.90;;
44838;SDS011;30576;42.098;24.876;2023-07-24T10:14:27;4.93;;;3.13;;
44838;SDS011;30576;42.098;24.876;2023-07-24T10:16:55;8.48;;;4.68;;
44838;SDS011;30576;42.098;24.876;2023-07-24T10:19:22;7.10;;;3.47;;
44838;SDS011;30576;42.098;24.876;2023-07-24T10:21:47;10.40;;;3.53;;
44838;SDS011;30576;42.098;24.876;2023-07-24T10:24:17;5.70;;;3.22;;
44838;SDS011;30576;42.098;24.876;2023-07-24T10:26:43;7.93;;;4.65;;
44838;SDS011;30576;42.098;24.876;2023-07-24T10:29:09;6.60;;;3.50;;
44838;SDS011;30576;42.098;24.876;2023-07-24T10:31:35;6.35;;;3.22;;
44838;SDS011;30576;42.098;24.876;2023-07-24T10:34:04;5.15;;;2.45;;
44838;SDS011;30576;42.098;24.876;2023-07-24T10:36:33;7.20;;;2.67;;
44838;SDS011;30576;42.098;24.876;2023-07-24T10:38:59;8.07;;;3.35;;
44838;SDS011;30576;42.098;24.876;2023-07-24T10:41:35;5.03;;;2.58;;
44838;SDS011;30576;42.098;24.876;2023-07-24T10:44:02;5.32;;;3.15;;
44838;SDS011;30576;42.098;24.876;2023-07-24T10:46:37;11.45;;;6.13;;
44838;SDS011;30576;42.098;24.876;2023-07-24T10:49:07;5.15;;;3.03;;
44838;SDS011;30576;42.098;24.876;2023-07-24T10:51:33;7.63;;;3.40;;
44838;SDS011;30576;42.098;24.876;2023-07-24T10:54:02;10.68;;;3.72;;
44838;SDS011;30576;42.098;24.876;2023-07-24T10:56:29;5.32;;;2.15;;
44838;SDS011;30576;42.098;24.876;2023-07-24T10:58:54;4.70;;;2.50;;
44838;SDS011;30576;42.098;24.876;2023-07-24T11:01:20;6.22;;;3.53;;
44838;SDS011;30576;42.098;24.876;2023-07-24T11:03:46;5.18;;;3.10;;
44838;SDS011;30576;42.098;24.876;2023-07-24T11:06:13;6.82;;;3.10;;
44838;SDS011;30576;42.098;24.876;2023-07-24T11:08:53;7.95;;;3.22;;
44838;SDS011;30576;42.098;24.876;2023-07-24T11:11:21;8.02;;;3.03;;
44838;SDS011;30576;42.098;24.876;2023-07-24T11:13:48;4.60;;;3.05;;
44838;SDS011;30576;42.098;24.876;2023-07-24T11:16:14;6.60;;;3.55;;
44838;SDS011;30576;42.098;24.876;2023-07-24T11:18:49;6.40;;;3.15;;
44838;SDS011;30576;42.098;24.876;2023-07-24T11:21:17;7.45;;;3.40;;
44838;SDS011;30576;42.098;24.876;2023-07-24T11:23:49;3.45;;;2.28;;
44838;SDS011;30576;42.098;24.876;2023-07-24T11:26:18;6.13;;;2.70;;
44838;SDS011;30576;42.098;24.876;2023-07-24T11:28:45;5.25;;;2.53;;
44838;SDS011;30576;42.098;24.876;2023-07-24T11:31:10;3.25;;;1.77;;
44838;SDS011;30576;42.098;24.876;2023-07-24T11:33:36;4.43;;;2.78;;
44838;SDS011;30576;42.098;24.876;2023-07-24T11:36:03;4.35;;;3.15;;
44838;SDS011;30576;42.098;24.876;2023-07-24T11:38:29;6.68;;;2.75;;
44838;SDS011;30576;42.098;24.876;2023-07-24T11:40:55;3.30;;;2.08;;
44838;SDS011;30576;42.098;24.876;2023-07-24T11:43:24;3.42;;;2.00;;
44838;SDS011;30576;42.098;24.876;2023-07-24T11:45:51;4.55;;;2.60;;
44838;SDS011;30576;42.098;24.876;2023-07-24T11:48:18;5.25;;;3.05;;
44838;SDS011;30576;42.098;24.876;2023-07-24T11:50:49;4.38;;;2.33;;
44838;SDS011;30576;42.098;24.876;2023-07-24T11:55:49;4.28;;;2.33;;
44838;SDS011;30576;42.098;24.876;2023-07-24T11:58:16;5.60;;;2.70;;
44838;SDS011;30576;42.098;24.876;2023-07-24T12:00:42;8.15;;;1.98;;
44838;SDS011;30576;42.098;24.876;2023-07-24T12:03:07;5.30;;;3.03;;
44838;SDS011;30576;42.098;24.876;2023-07-24T12:05:43;6.10;;;2.75;;
44838;SDS011;30576;42.098;24.876;2023-07-24T12:08:12;8.70;;;2.60;;
44838;SDS011;30576;42.098;24.876;2023-07-24T12:10:39;3.00;;;2.38;;
44838;SDS011;30576;42.098;24.876;2023-07-24T12:13:06;6.70;;;2.58;;
44838;SDS011;30576;42.098;24.876;2023-07-24T12:15:32;6.35;;;3.83;;
44838;SDS011;30576;42.098;24.876;2023-07-24T12:18:00;4.93;;;2.38;;
44838;SDS011;30576;42.098;24.876;2023-07-24T12:20:26;3.03;;;2.13;;
44838;SDS011;30576;42.098;24.876;2023-07-24T12:22:52;4.60;;;1.90;;
44838;SDS011;30576;42.098;24.876;2023-07-24T12:25:18;5.78;;;2.42;;
44838;SDS011;30576;42.098;24.876;2023-07-24T12:27:45;4.90;;;2.42;;
44838;SDS011;30576;42.098;24.876;2023-07-24T12:30:12;5.32;;;2.72;;
44838;SDS011;30576;42.098;24.876;2023-07-24T12:32:37;5.72;;;3.03;;
44838;SDS011;30576;42.098;24.876;2023-07-24T12:35:03;6.47;;;3.00;;
44838;SDS011;30576;42.098;24.876;2023-07-24T12:37:30;5.70;;;2.53;;
44838;SDS011;30576;42.098;24.876;2023-07-24T12:39:55;4.63;;;2.72;;
44838;SDS011;30576;42.098;24.876;2023-07-24T12:42:21;9.93;;;2.88;;
44838;SDS011;30576;42.098;24.876;2023-07-24T12:44:47;4.07;;;2.15;;
44838;SDS011;30576;42.098;24.876;2023-07-24T12:47:12;4.82;;;2.35;;
44838;SDS011;30576;42.098;24.876;2023-07-24T12:49:38;5.60;;;1.58;;
44838;SDS011;30576;42.098;24.876;2023-07-24T12:52:04;3.05;;;2.05;;
44838;SDS011;30576;42.098;24.876;2023-07-24T12:54:31;4.57;;;2.30;;
44838;SDS011;30576;42.098;24.876;2023-07-24T12:56:56;9.55;;;2.38;;
44838;SDS011;30576;42.098;24.876;2023-07-24T12:59:22;4.43;;;2.25;;
44838;SDS011;30576;42.098;24.876;2023-07-24T13:01:47;4.93;;;2.53;;
44838;SDS011;30576;42.098;24.876;2023-07-24T13:04:13;3.97;;;2.20;;
44838;SDS011;30576;42.098;24.876;2023-07-24T13:06:39;5.38;;;2.33;;
44838;SDS011;30576;42.098;24.876;2023-07-24T13:09:04;4.53;;;2.38;;
44838;SDS011;30576;42.098;24.876;2023-07-24T13:11:30;4.32;;;2.60;;
44838;SDS011;30576;42.098;24.876;2023-07-24T13:13:56;4.18;;;2.42;;
44838;SDS011;30576;42.098;24.876;2023-07-24T13:16:22;2.75;;;1.83;;
44838;SDS011;30576;42.098;24.876;2023-07-24T13:18:48;4.22;;;1.80;;
44838;SDS011;30576;42.098;24.876;2023-07-24T13:21:14;5.13;;;2.35;;
44838;SDS011;30576;42.098;24.876;2023-07-24T13:23:40;4.80;;;2.53;;
44838;SDS011;30576;42.098;24.876;2023-07-24T13:26:06;4.50;;;2.13;;
44838;SDS011;30576;42.098;24.876;2023-07-24T13:28:36;2.58;;;1.80;;
44838;SDS011;30576;42.098;24.876;2023-07-24T13:31:22;2.80;;;1.50;;
44838;SDS011;30576;42.098;24.876;2023-07-24T13:33:47;2.03;;;1.42;;
44838;SDS011;30576;42.098;24.876;2023-07-24T13:36:13;5.10;;;2.17;;
44838;SDS011;30576;42.098;24.876;2023-07-24T13:38:39;3.83;;;2.13;;
44838;SDS011;30576;42.098;24.876;2023-07-24T13:41:08;3.72;;;2.28;;
44838;SDS011;30576;42.098;24.876;2023-07-24T13:43:34;3.50;;;1.98;;
44838;SDS011;30576;42.098;24.876;2023-07-24T13:46:01;5.72;;;3.22;;
44838;SDS011;30576;42.098;24.876;2023-07-24T13:48:30;6.72;;;2.03;;
44838;SDS011;30576;42.098;24.876;2023-07-24T13:50:55;4.75;;;2.33;;
44838;SDS011;30576;42.098;24.876;2023-07-24T13:53:21;6.90;;;2.70;;
44838;SDS011;30576;42.098;24.876;2023-07-24T13:55:47;4.75;;;2.75;;
44838;SDS011;30576;42.098;24.876;2023-07-24T13:58:13;7.78;;;2.60;;
44838;SDS011;30576;42.098;24.876;2023-07-24T14:00:38;3.95;;;2.03;;
44838;SDS011;30576;42.098;24.876;2023-07-24T14:03:04;3.90;;;2.13;;
44838;SDS011;30576;42.098;24.876;2023-07-24T14:05:32;5.80;;;1.85;;
44838;SDS011;30576;42.098;24.876;2023-07-24T14:08:01;4.72;;;1.90;;
44838;SDS011;30576;42.098;24.876;2023-07-24T14:10:27;4.60;;;2.58;;
44838;SDS011;30576;42.098;24.876;2023-07-24T14:12:52;3.63;;;2.25;;
44838;SDS011;30576;42.098;24.876;2023-07-24T14:15:18;4.30;;;2.35;;
44838;SDS011;30576;42.098;24.876;2023-07-24T14:17:43;3.40;;;2.03;;
44838;SDS011;30576;42.098;24.876;2023-07-24T14:20:09;4.50;;;2.63;;
44838;SDS011;30576;42.098;24.876;2023-07-24T14:22:36;5.35;;;3.00;;
44838;SDS011;30576;42.098;24.876;2023-07-24T14:25:01;4.93;;;1.75;;
44838;SDS011;30576;42.098;24.876;2023-07-24T14:27:27;5.75;;;2.67;;
44838;SDS011;30576;42.098;24.876;2023-07-24T14:29:52;3.53;;;1.77;;
44838;SDS011;30576;42.098;24.876;2023-07-24T14:32:18;5.57;;;2.67;;
44838;SDS011;30576;42.098;24.876;2023-07-24T14:34:49;4.20;;;2.15;;
44838;SDS011;30576;42.098;24.876;2023-07-24T14:37:15;4.80;;;2.28;;
44838;SDS011;30576;42.098;24.876;2023-07-24T14:39:41;4.65;;;2.58;;
44838;SDS011;30576;42.098;24.876;2023-07-24T14:42:07;5.00;;;2.55;;
44838;SDS011;30576;42.098;24.876;2023-07-24T14:44:32;4.47;;;3.13;;
44838;SDS011;30576;42.098;24.876;2023-07-24T14:46:58;3.42;;;2.05;;